| time (UTC) | temp F | wind direction | speed MPH | gust MPH | rain 1hr in | rain 24hr in | rain mn in | humidity % | barometer mb |
| 20260831011257 | 77 | 214 | 2.0 | 5.0 | 0.00 | 0.00 | 0.00 | 56 | 966.7 |
| 20260831010316 | 77 | 221 | 2.0 | 6.0 | 0.00 | 0.00 | 0.00 | 57 | 966.6 |
| 20260831005335 | 77 | 205 | 1.0 | 7.0 | 0.00 | 0.00 | 0.00 | 58 | 966.7 |
| 20260831004327 | 77 | 229 | 1.0 | 7.0 | 0.00 | 0.00 | 0.00 | 59 | 966.7 |
| 20260831003301 | 79 | 171 | 1.0 | 7.0 | 0.00 | 0.00 | 0.00 | 54 | 966.7 |
| 20260831001203 | 81 | 205 | 3.0 | 9.0 | 0.00 | 0.00 | 0.00 | 51 | 966.7 |
| 20260830233911 | 84 | 200 | 1.0 | 6.0 | 0.00 | 0.00 | 0.00 | 40 | 966.8 |
| 20260830232933 | 84 | 239 | 2.0 | 5.0 | 0.00 | 0.00 | 0.00 | 41 | 966.7 |
| 20260830230817 | 85 | 214 | 1.0 | 6.0 | 0.00 | 0.00 | 0.00 | 38 | 966.9 |
| 20260830225839 | 85 | 211 | 1.0 | 6.0 | 0.00 | 0.00 | 0.00 | 37 | 966.9 |
| 20260830224844 | 84 | 173 | 1.0 | 6.0 | 0.00 | 0.00 | 0.00 | 42 | 967.0 |
| 20260830223840 | 84 | 165 | 2.0 | 7.0 | 0.00 | 0.00 | 0.00 | 45 | 967.3 |
| 20260830222855 | 84 | 191 | 2.0 | 7.0 | 0.00 | 0.00 | 0.00 | 46 | 967.3 |
| 20260830221917 | 85 | 123 | 2.0 | 7.0 | 0.00 | 0.00 | 0.00 | 45 | 967.5 |
| 20260830220921 | 85 | 240 | 1.0 | 6.0 | 0.00 | 0.00 | 0.00 | 45 | 967.5 |
| 20260830215902 | 84 | 288 | 2.0 | 7.0 | 0.00 | 0.00 | 0.00 | 45 | 967.7 |
| 20260830214832 | 84 | 249 | 2.0 | 9.0 | 0.00 | 0.00 | 0.00 | 46 | 967.9 |
| 20260830213857 | 85 | 238 | 2.0 | 9.0 | 0.00 | 0.00 | 0.00 | 47 | 967.9 |
| 20260830212825 | 85 | 263 | 3.0 | 9.0 | 0.00 | 0.00 | 0.00 | 47 | 968.0 |
| 20260830211754 | 85 | 255 | 2.0 | 9.0 | 0.00 | 0.00 | 0.00 | 48 | 968.0 |
| 20260830210745 | 84 | 235 | 2.0 | 9.0 | 0.00 | 0.00 | 0.00 | 48 | 968.0 |
| 20260830205724 | 84 | 191 | 2.0 | 9.0 | 0.00 | 0.00 | 0.00 | 48 | 968.2 |
| 20260830204717 | 85 | 220 | 2.0 | 9.0 | 0.00 | 0.00 | 0.00 | 47 | 968.2 |
| 20260830203708 | 85 | 224 | 2.0 | 9.0 | 0.00 | 0.00 | 0.00 | 47 | 968.3 |
| 20260830202710 | 85 | 138 | 2.0 | 7.0 | 0.00 | 0.00 | 0.00 | 47 | 968.4 |
| 20260830201648 | 85 | 234 | 1.0 | 8.0 | 0.00 | 0.00 | 0.00 | 47 | 968.4 |
| 20260830200652 | 85 | 263 | 2.0 | 8.0 | 0.00 | 0.00 | 0.00 | 48 | 968.4 |
| 20260830195702 | 84 | 159 | 1.0 | 7.0 | 0.00 | 0.00 | 0.00 | 48 | 968.4 |
| 20260830194628 | 83 | 284 | 1.0 | 8.0 | 0.00 | 0.00 | 0.00 | 50 | 968.5 |
| 20260830193612 | 84 | 163 | 2.0 | 8.0 | 0.00 | 0.00 | 0.00 | 49 | 968.6 |
| 20260830192636 | 84 | 220 | 1.0 | 7.0 | 0.00 | 0.00 | 0.00 | 50 | 968.7 |
| 20260830190511 | 83 | 225 | 2.0 | 8.0 | 0.00 | 0.00 | 0.00 | 52 | 968.7 |
| 20260830185443 | 85 | 212 | 1.0 | 5.0 | 0.00 | 0.00 | 0.00 | 49 | 968.7 |
| 20260830183411 | 83 | 230 | 1.0 | 4.0 | 0.00 | 0.00 | 0.00 | 50 | 968.7 |
| 20260830182429 | 82 | 190 | 2.0 | 4.0 | 0.00 | 0.00 | 0.00 | 50 | 968.7 |
| 20260830181439 | 81 | 212 | 2.0 | 5.0 | 0.00 | 0.00 | 0.00 | 53 | 968.9 |
| 20260830180424 | 81 | 215 | 1.0 | 5.0 | 0.00 | 0.00 | 0.00 | 53 | 968.8 |
| 20260830175357 | 82 | 271 | 1.0 | 5.0 | 0.00 | 0.00 | 0.00 | 53 | 968.9 |
| 20260830174418 | 82 | 85 | 0.0 | 5.0 | 0.00 | 0.00 | 0.00 | 51 | 968.8 |
| 20260830173436 | 82 | 178 | 1.0 | 4.0 | 0.00 | 0.00 | 0.00 | 52 | 968.8 |
| 20260830172433 | 82 | 213 | 1.0 | 4.0 | 0.00 | 0.00 | 0.00 | 52 | 968.7 |
| 20260830171405 | 80 | 212 | 1.0 | 4.0 | 0.00 | 0.00 | 0.00 | 53 | 968.6 |
| 20260830170405 | 80 | 190 | 0.0 | 3.0 | 0.00 | 0.00 | 0.00 | 56 | 968.6 |
| 20260830165343 | 79 | 197 | 0.0 | 3.0 | 0.00 | 0.00 | 0.00 | 57 | 968.6 |
| 20260830164334 | 79 | 259 | 0.0 | 1.0 | 0.00 | 0.00 | 0.00 | 57 | 968.6 |
| 20260830163340 | 79 | 277 | 0.0 | 0.0 | 0.00 | 0.00 | 0.00 | 58 | 968.5 |
| 20260830162310 | 78 | 278 | 0.0 | 0.0 | 0.00 | 0.00 | 0.00 | 62 | 968.6 |
| 20260830161311 | 77 | 218 | 0.0 | 0.0 | 0.00 | 0.00 | 0.00 | 64 | 968.6 |
| 20260830160244 | 75 | 218 | 0.0 | 0.0 | 0.00 | 0.00 | 0.00 | 69 | 968.6 |
| 20260830155235 | 74 | 218 | 0.0 | 0.0 | 0.00 | 0.00 | 0.00 | 73 | 968.5 |
| 20260830154240 | 73 | 218 | 0.0 | 0.0 | 0.00 | 0.00 | 0.00 | 74 | 968.6 |
| 20260830152021 | 71 | 218 | 0.0 | 0.0 | 0.00 | 0.00 | 0.00 | 78 | 968.6 |
| 20260830145826 | 70 | 218 | 0.0 | 0.0 | 0.00 | 0.00 | 0.00 | 79 | 968.7 |
| 20260830144846 | 69 | 218 | 0.0 | 0.0 | 0.00 | 0.00 | 0.00 | 78 | 968.6 |
| 20260830143843 | 69 | 218 | 0.0 | 0.0 | 0.00 | 0.00 | 0.00 | 77 | 968.5 |
| 20260830142841 | 69 | 218 | 0.0 | 0.0 | 0.00 | 0.00 | 0.00 | 77 | 968.4 |
| 20260830141839 | 68 | 218 | 0.0 | 0.0 | 0.00 | 0.00 | 0.00 | 76 | 968.3 |
| 20260830134606 | 68 | 218 | 0.0 | 0.0 | 0.00 | 0.00 | 0.00 | 76 | 968.1 |
| 20260830133625 | 68 | 218 | 0.0 | 0.0 | 0.00 | 0.00 | 0.00 | 76 | 968.0 |
| 20260830132630 | 68 | 218 | 0.0 | 0.0 | 0.00 | 0.00 | 0.00 | 75 | 967.8 |
| 20260830131632 | 68 | 218 | 0.0 | 0.0 | 0.00 | 0.00 | 0.00 | 76 | 967.8 |
| 20260830130637 | 68 | 218 | 0.0 | 0.0 | 0.00 | 0.00 | 0.00 | 76 | 967.6 |
| 20260830124518 | 68 | 218 | 0.0 | 0.0 | 0.00 | 0.00 | 0.00 | 76 | 967.6 |
| 20260830123451 | 68 | 218 | 0.0 | 0.0 | 0.00 | 0.00 | 0.00 | 75 | 967.5 |
| 20260830122443 | 68 | 218 | 0.0 | 0.0 | 0.00 | 0.00 | 0.00 | 75 | 967.6 |
| 20260830121446 | 68 | 218 | 0.0 | 0.0 | 0.00 | 0.00 | 0.00 | 75 | 967.5 |
| 20260830114143 | 68 | 218 | 0.0 | 0.0 | 0.00 | 0.00 | 0.00 | 76 | 967.4 |
| 20260830112014 | 67 | 218 | 0.0 | 0.0 | 0.00 | 0.00 | 0.00 | 79 | 967.3 |
| 20260830111021 | 67 | 218 | 0.0 | 0.0 | 0.00 | 0.00 | 0.00 | 81 | 967.2 |
| 20260830105955 | 67 | 218 | 0.0 | 0.0 | 0.00 | 0.00 | 0.00 | 82 | 967.3 |
| 20260830105014 | 67 | 218 | 0.0 | 0.0 | 0.00 | 0.00 | 0.00 | 82 | 967.3 |
| 20260830104027 | 68 | 218 | 0.0 | 0.0 | 0.00 | 0.00 | 0.00 | 82 | 967.3 |
| 20260830101911 | 68 | 218 | 0.0 | 0.0 | 0.00 | 0.00 | 0.00 | 82 | 967.4 |
| 20260830100837 | 68 | 218 | 0.0 | 0.0 | 0.00 | 0.00 | 0.00 | 81 | 967.3 |
| 20260830095849 | 68 | 218 | 0.0 | 0.0 | 0.00 | 0.00 | 0.00 | 82 | 967.1 |
| 20260830094859 | 68 | 218 | 0.0 | 0.0 | 0.00 | 0.00 | 0.00 | 82 | 967.2 |
| 20260830093853 | 68 | 218 | 0.0 | 0.0 | 0.00 | 0.00 | 0.00 | 82 | 967.2 |
| 20260830091738 | 68 | 218 | 0.0 | 0.0 | 0.00 | 0.00 | 0.00 | 82 | 967.3 |
| 20260830090751 | 68 | 218 | 0.0 | 0.0 | 0.00 | 0.00 | 0.00 | 82 | 967.2 |
| 20260830085738 | 68 | 218 | 0.0 | 0.0 | 0.00 | 0.00 | 0.00 | 84 | 967.2 |
| 20260830084721 | 68 | 218 | 0.0 | 0.0 | 0.00 | 0.00 | 0.00 | 84 | 967.0 |
| 20260830083706 | 68 | 218 | 0.0 | 0.0 | 0.00 | 0.00 | 0.00 | 84 | 967.2 |
| 20260830082650 | 68 | 218 | 0.0 | 0.0 | 0.00 | 0.00 | 0.00 | 83 | 967.2 |
| 20260830081704 | 68 | 218 | 0.0 | 0.0 | 0.00 | 0.00 | 0.00 | 83 | 967.3 |
| 20260830080655 | 68 | 218 | 0.0 | 0.0 | 0.00 | 0.00 | 0.00 | 82 | 967.4 |
| 20260830075641 | 68 | 218 | 0.0 | 0.0 | 0.00 | 0.00 | 0.00 | 82 | 967.5 |
| 20260830073446 | 69 | 218 | 0.0 | 0.0 | 0.00 | 0.00 | 0.00 | 82 | 967.4 |
| 20260830072453 | 70 | 218 | 0.0 | 0.0 | 0.00 | 0.00 | 0.00 | 81 | 967.5 |
| 20260830071509 | 71 | 218 | 0.0 | 1.0 | 0.00 | 0.00 | 0.00 | 79 | 967.4 |
| 20260830065327 | 73 | 119 | 0.0 | 2.0 | 0.00 | 0.00 | 0.00 | 73 | 967.3 |
| 20260830064345 | 74 | 126 | 0.0 | 0.0 | 0.00 | 0.00 | 0.00 | 68 | 967.2 |
| 20260830063327 | 74 | 126 | 0.0 | 0.0 | 0.00 | 0.00 | 0.00 | 69 | 966.9 |
| 20260830062311 | 75 | 126 | 1.0 | 3.0 | 0.00 | 0.00 | 0.00 | 66 | 967.0 |
| 20260830061323 | 76 | 126 | 0.0 | 0.0 | 0.00 | 0.00 | 0.00 | 56 | 966.9 |
| 20260830060250 | 76 | 126 | 0.0 | 0.0 | 0.00 | 0.00 | 0.00 | 59 | 966.9 |
| 20260830055250 | 75 | 126 | 0.0 | 0.0 | 0.00 | 0.00 | 0.00 | 63 | 966.8 |
| 20260830053130 | 74 | 126 | 0.0 | 0.0 | 0.00 | 0.00 | 0.00 | 68 | 966.8 |
| 20260830052132 | 75 | 126 | 0.0 | 0.0 | 0.00 | 0.00 | 0.00 | 67 | 967.0 |
| 20260830051123 | 76 | 126 | 0.0 | 3.0 | 0.00 | 0.00 | 0.00 | 67 | 967.0 |
| 20260830043815 | 72 | 144 | 0.0 | 0.0 | 0.00 | 0.00 | 0.00 | 73 | 967.1 |
| 20260830042817 | 72 | 144 | 0.0 | 0.0 | 0.00 | 0.00 | 0.00 | 76 | 966.9 |
| 20260830041838 | 73 | 0 | 0.0 | 0.0 | 0.00 | 0.00 | 0.00 | 76 | 967.0 |
| 20260830035649 | 73 | 0 | 0.0 | 0.0 | 0.00 | 0.00 | 0.00 | 74 | 967.0 |
| 20260830033521 | 74 | 142 | 0.0 | 0.0 | 0.00 | 0.00 | 0.00 | 70 | 966.8 |
| 20260830032509 | 74 | 142 | 0.0 | 0.0 | 0.00 | 0.00 | 0.00 | 70 | 966.6 |
| 20260830031510 | 75 | 142 | 0.0 | 0.0 | 0.00 | 0.00 | 0.00 | 69 | 966.4 |
| 20260830030456 | 75 | 142 | 0.0 | 0.0 | 0.00 | 0.00 | 0.00 | 68 | 966.3 |
| 20260830025449 | 76 | 142 | 0.0 | 0.0 | 0.00 | 0.00 | 0.00 | 66 | 966.2 |
| 20260830024434 | 76 | 142 | 0.0 | 3.0 | 0.00 | 0.00 | 0.00 | 63 | 966.3 |
| 20260830023419 | 77 | 142 | 0.0 | 1.0 | 0.00 | 0.00 | 0.00 | 61 | 966.3 |
| 20260830022345 | 77 | 142 | 0.0 | 0.0 | 0.00 | 0.00 | 0.00 | 61 | 966.3 |
| 20260830021348 | 77 | 143 | 0.0 | 0.0 | 0.00 | 0.00 | 0.00 | 59 | 966.2 |
| 20260830015213 | 79 | 219 | 0.0 | 2.0 | 0.00 | 0.00 | 0.00 | 57 | 966.2 |
| 20260830013115 | 80 | 180 | 1.0 | 5.0 | 0.00 | 0.00 | 0.00 | 56 | 966.2 |
| 20260830012135 | 80 | 210 | 1.0 | 5.0 | 0.00 | 0.00 | 0.00 | 56 | 966.3 |